createdAt,value
2019-02-03T00:02:27.027Z,112.40
2019-02-03T00:04:56.642Z,130.70
2019-02-03T00:07:26.316Z,147.23
2019-02-03T00:09:56.137Z,142.27
2019-02-03T00:12:26.233Z,118.63
2019-02-03T00:14:55.894Z,131.73
2019-02-03T00:17:25.813Z,134.63
2019-02-03T00:19:55.439Z,124.83
2019-02-03T00:22:25.130Z,138.67
2019-02-03T00:24:55.053Z,133.10
2019-02-03T00:27:24.786Z,129.60
2019-02-03T00:29:54.666Z,117.37
2019-02-03T00:32:24.454Z,129.13
2019-02-03T00:34:54.119Z,126.17
2019-02-03T00:37:23.691Z,132.90
2019-02-03T00:39:53.300Z,126.90
2019-02-03T00:42:23.071Z,137.47
2019-02-03T00:44:52.686Z,116.23
2019-02-03T00:47:22.371Z,121.80
2019-02-03T00:49:52.105Z,141.07
2019-02-03T00:52:22.192Z,151.87
2019-02-03T00:54:51.840Z,139.90
2019-02-03T00:57:21.466Z,110.03
2019-02-03T00:59:51.343Z,112.17
2019-02-03T01:02:20.926Z,150.27
2019-02-03T01:04:50.739Z,136.70
2019-02-03T01:07:27.528Z,183.40
2019-02-03T01:09:51.681Z,152.67
2019-02-03T01:12:21.373Z,131.87
2019-02-03T01:14:51.179Z,132.30
2019-02-03T01:17:21.070Z,138.20
2019-02-03T01:19:50.662Z,129.57
2019-02-03T01:22:20.386Z,161.27
2019-02-03T01:24:50.022Z,120.40
2019-02-03T01:27:19.852Z,141.83
2019-02-03T01:29:49.446Z,152.93
2019-02-03T01:32:19.055Z,131.07
2019-02-03T01:34:48.714Z,134.63
2019-02-03T01:37:18.410Z,124.73
2019-02-03T01:39:48.102Z,115.43
2019-02-03T01:42:17.783Z,115.37
2019-02-03T01:44:47.969Z,138.80
2019-02-03T01:47:17.684Z,103.37
2019-02-03T01:49:47.293Z,127.17
2019-02-03T01:52:16.902Z,126.93
2019-02-03T01:54:46.542Z,131.00
2019-02-03T01:57:16.393Z,142.10
2019-02-03T01:59:46.135Z,132.60
2019-02-03T02:02:16.044Z,166.47
2019-02-03T02:04:45.762Z,124.97
2019-02-03T02:07:17.020Z,120.53
2019-02-03T02:09:46.937Z,95.40
2019-02-03T02:12:16.688Z,130.60
2019-02-03T02:14:47.997Z,95.03
2019-02-03T02:17:17.959Z,117.90
2019-02-03T02:19:48.627Z,114.27
2019-02-03T02:22:18.329Z,122.83
2019-02-03T02:24:48.126Z,105.67
2019-02-03T02:27:17.858Z,93.33
2019-02-03T02:29:47.651Z,114.73
2019-02-03T02:32:17.358Z,103.37
2019-02-03T02:34:47.172Z,104.33
2019-02-03T02:37:17.138Z,112.30
2019-02-03T02:39:46.842Z,121.33
2019-02-03T02:42:16.363Z,104.93
2019-02-03T02:44:46.006Z,135.93
2019-02-03T02:47:15.847Z,128.53
2019-02-03T02:49:45.473Z,128.23
2019-02-03T02:52:15.078Z,135.03
2019-02-03T02:54:44.802Z,112.20
2019-02-03T02:57:14.470Z,128.60
2019-02-03T02:59:44.406Z,105.27
2019-02-03T03:02:14.231Z,132.03
2019-02-03T03:04:44.023Z,123.03
2019-02-03T03:07:13.754Z,110.70
2019-02-03T03:09:43.426Z,137.67
2019-02-03T03:12:13.139Z,126.70
2019-02-03T03:14:42.816Z,141.47
2019-02-03T03:24:40.933Z,138.80
2019-02-03T03:27:10.757Z,123.20
2019-02-03T04:59:12.087Z,106.35
2019-02-03T05:07:58.272Z,95.95
2019-02-03T05:37:53.793Z,105.77
2019-02-03T05:40:42.782Z,77.37
2019-02-03T05:43:31.663Z,98.80
2019-02-03T05:46:20.530Z,104.27
2019-02-03T05:49:09.363Z,97.60
2019-02-03T05:51:58.435Z,99.93
2019-02-03T05:54:47.306Z,93.63
2019-02-03T05:57:36.248Z,107.70
2019-02-03T06:00:45.891Z,92.47
2019-02-03T06:03:34.829Z,87.60
2019-02-03T06:06:23.839Z,90.67
2019-02-03T06:12:40.391Z,95.93
2019-02-03T06:15:48.657Z,88.23
2019-02-03T06:18:37.592Z,96.43
2019-02-03T06:21:26.513Z,113.40
2019-02-03T06:24:15.523Z,96.07
2019-02-03T06:30:46.647Z,94.30
2019-02-03T06:33:35.519Z,95.87
2019-02-03T06:36:18.323Z,84.90
2019-02-03T06:39:07.458Z,90.53
2019-02-03T06:41:56.308Z,99.60
2019-02-03T06:44:45.357Z,90.80
2019-02-03T06:47:55.331Z,86.30
2019-02-03T06:50:44.218Z,98.63
2019-02-03T06:53:52.594Z,86.83
2019-02-03T06:57:02.602Z,77.83
2019-02-03T06:59:51.847Z,86.73
2019-02-03T07:02:40.759Z,88.90
2019-02-03T07:05:29.669Z,93.33
2019-02-03T07:08:18.738Z,84.17
2019-02-03T07:11:27.071Z,90.47
2019-02-03T07:14:16.250Z,87.40
2019-02-03T07:17:05.171Z,94.87
2019-02-03T07:20:34.198Z,79.37
2019-02-03T07:26:22.869Z,82.53
2019-02-03T07:29:11.844Z,96.43
2019-02-03T07:32:00.770Z,87.90
2019-02-03T07:34:49.735Z,72.33
2019-02-03T07:37:34.115Z,89.70
2019-02-03T07:40:23.125Z,82.30
2019-02-03T07:43:31.719Z,72.67
2019-02-03T07:46:20.647Z,82.53
2019-02-03T07:49:30.630Z,77.50
2019-02-03T07:55:22.167Z,70.83
2019-02-03T07:58:30.622Z,84.00
2019-02-03T08:01:19.722Z,46.67
2019-02-03T08:04:08.686Z,75.20
2019-02-03T08:06:57.630Z,75.60
2019-02-03T08:10:29.781Z,72.23
2019-02-03T08:13:38.397Z,79.93
2019-02-03T08:16:27.462Z,83.37
2019-02-03T08:19:16.314Z,77.03
2019-02-03T08:22:05.255Z,78.17
2019-02-03T08:25:07.603Z,55.37
2019-02-03T08:31:06.608Z,65.77
2019-02-03T08:33:55.618Z,65.47
2019-02-03T08:36:38.504Z,58.23
2019-02-03T08:39:27.483Z,62.43
2019-02-03T08:42:16.434Z,55.90
2019-02-03T08:45:26.028Z,55.10
2019-02-03T08:51:14.519Z,45.63
2019-02-03T08:54:03.871Z,58.10
2019-02-03T08:56:53.036Z,53.30
2019-02-03T08:59:42.503Z,52.57
2019-02-03T09:02:31.415Z,54.37
2019-02-03T09:05:39.792Z,53.73
2019-02-03T09:08:48.292Z,53.03
2019-02-03T09:11:56.551Z,51.10
2019-02-03T09:14:47.144Z,47.70
2019-02-03T09:17:57.151Z,44.07
2019-02-03T09:20:48.119Z,34.93
2019-02-03T09:23:56.170Z,30.27
2019-02-03T09:26:45.061Z,24.70
2019-02-03T09:29:33.998Z,27.10
2019-02-03T09:32:23.011Z,30.17
2019-02-03T09:38:08.415Z,23.33
2019-02-03T09:41:00.181Z,17.80
2019-02-03T09:53:04.354Z,23.10
2019-02-03T09:56:12.722Z,18.43
2019-02-03T09:59:01.634Z,20.00
2019-02-03T10:02:11.615Z,16.97
2019-02-03T10:07:48.707Z,23.63
2019-02-03T10:10:57.023Z,26.90
2019-02-03T10:13:45.871Z,43.20
2019-02-03T10:16:34.825Z,32.30
2019-02-03T10:19:23.911Z,31.17
2019-02-03T10:22:12.999Z,27.77
2019-02-03T10:25:01.860Z,21.93
2019-02-03T10:27:52.496Z,18.23
2019-02-03T10:30:41.485Z,23.73
2019-02-03T10:33:30.602Z,28.70
2019-02-03T10:36:19.581Z,47.83
2019-02-03T10:39:29.571Z,21.20
2019-02-03T10:42:18.428Z,19.37
2019-02-03T10:45:28.093Z,21.53
2019-02-03T10:48:17.195Z,15.57
2019-02-03T10:51:06.472Z,9.60
2019-02-03T10:53:55.335Z,12.83
2019-02-03T10:56:44.260Z,14.23
2019-02-03T10:59:33.283Z,12.50
2019-02-03T11:02:22.335Z,14.50
2019-02-03T11:05:30.623Z,13.50
2019-02-03T11:08:19.681Z,15.03
2019-02-03T11:11:08.678Z,14.37
2019-02-03T11:14:18.681Z,13.13
2019-02-03T15:34:27.484Z,23.00
2019-02-03T15:37:10.198Z,12.60
2019-02-03T15:39:59.311Z,10.60
2019-02-03T15:42:48.522Z,21.53
2019-02-03T15:45:58.567Z,19.27
2019-02-03T15:49:06.959Z,10.70
2019-02-03T15:51:55.895Z,17.17
2019-02-03T15:58:27.081Z,19.23
2019-02-03T16:01:16.217Z,11.77
2019-02-03T16:04:05.224Z,10.60
2019-02-03T16:06:54.240Z,13.00
2019-02-03T16:09:43.169Z,10.63
2019-02-03T16:12:32.267Z,20.60
2019-02-03T16:15:42.385Z,20.70
2019-02-03T17:33:02.880Z,26.17
2019-02-03T17:36:31.872Z,22.90
2019-02-03T17:39:33.687Z,17.97
2019-02-03T17:42:22.684Z,23.10
2019-02-03T17:45:31.027Z,28.27
2019-02-03T17:48:19.935Z,29.20
2019-02-03T17:51:23.512Z,22.40
2019-02-03T17:54:19.165Z,20.90
2019-02-03T17:57:29.301Z,26.43
2019-02-03T18:00:39.169Z,36.87
2019-02-03T18:03:28.275Z,23.67
2019-02-03T18:09:38.863Z,37.37
2019-02-03T18:12:27.802Z,23.47
2019-02-03T18:18:17.739Z,18.40
2019-02-03T18:21:06.685Z,18.27
2019-02-03T18:23:55.779Z,14.20
2019-02-03T18:27:04.207Z,17.00
2019-02-03T18:30:31.885Z,18.30
2019-02-03T18:33:20.964Z,16.30
2019-02-03T18:39:07.098Z,34.80
2019-02-03T18:41:56.207Z,29.70
2019-02-03T18:44:45.188Z,22.10
2019-02-03T18:47:35.928Z,23.87
2019-02-03T18:50:25.038Z,23.13
2019-02-03T18:53:35.184Z,30.93
2019-02-03T18:59:25.275Z,16.50
2019-02-03T19:02:14.431Z,17.17
2019-02-03T19:05:03.428Z,17.33
2019-02-03T19:07:52.656Z,26.23
2019-02-03T19:13:42.651Z,23.60
2019-02-03T19:16:31.682Z,22.27
2019-02-03T19:19:20.691Z,29.80
2019-02-03T19:22:10.048Z,26.97
2019-02-03T19:28:07.354Z,39.20
2019-02-03T19:34:46.620Z,27.97
2019-02-03T19:37:35.736Z,29.83
2019-02-03T19:40:45.411Z,31.53
2019-02-03T19:43:34.315Z,26.70
2019-02-03T19:46:23.332Z,22.33
2019-02-03T19:52:34.209Z,29.23
2019-02-03T19:55:38.110Z,38.73
2019-02-03T19:58:33.666Z,31.70
2019-02-03T20:01:22.919Z,27.90
2019-02-03T20:04:11.874Z,21.37
2019-02-03T20:07:00.972Z,23.70
2019-02-03T20:09:50.095Z,21.07
2019-02-03T20:12:39.134Z,22.93
2019-02-03T20:18:18.032Z,32.20
2019-02-03T20:21:07.391Z,15.37
2019-02-03T20:23:58.144Z,24.20
